Terminal Aerodrome Forecast
Issued by NWS

Current Version | Previous Version | Text Only | Print | Product List | Glossary Off
Versions: 1 2 3 4 5 6 7 8 9 10 11 12 13 14 15 16 17 18 19 20 21 22 23 24 25 26

000
FTUS41 KRLX 202100 AAA
TAFCKB
TAF AMD
KCKB 202111Z 2021/2118 25008KT P6SM FEW045
     FM202300 19004KT P6SM SCT200
     FM210300 17004KT P6SM FEW035
     FM210800 18002KT 5SM BR SCT025
     FM211000 19003KT 6SM BR BKN035
     FM211200 20005KT P6SM BKN035
     FM211400 21008KT P6SM VCTS BKN020CB
     FM211500 22009KT 5SM SHRA BR VCTS BKN020CB=

USA.gov is the U.S. government's official web portal to all federal, state and local government web resources and services.